McAllister, Montana
Current Conditions -  °F | °C
As of 3:56 AM on Sunday 23 Nov 2014 (Local Time) from KBZN Reporting Station
Broken Clouds Broken Clouds  
Wind Chill: -6°   Ceiling: 6000
Heat Index: -2°   Visibility: 10mi
Dew Point: -4°   Wind: 7mph
Humidity: 85%   Direction: 360°N
Pressure: 29.89"   Gusts: NA
Location:  45.44°N, 111.73°W
Report Text: KBZN 231056Z AUTO 36006KT 10SM FEW047 BKN060 M02/M04 A2989 RMK AO2 SLP142 T10171039
Loading
Personal Weather Stations






























Interactive Weather Map New forecast layout! Learn more

10-Day Weather Forecast

Advertisements
Track Severe Weather on mobile